Time;durP1;ratioP1;P1;durP2;ratioP2;P2;SDS_P1;SDS_P2;PMS_P1;PMS_P2;Temp;Humidity;BMP_temperature;BMP_pressure;BME280_temperature;BME280_humidity;BME280_pressure;Samples;Min_cycle;Max_cycle;Signal;HPM_P1;HPM_P2
2023/10/17 00:02:22;;;;;;;68.10;39.50;;;;;;;44.58;7.43;101047.27;108963;1276;22951;-77
2023/10/17 00:05:03;;;;;;;51.50;36.60;;;;;;;44.50;7.47;101043.20;109069;1276;21999;-77
2023/10/17 00:08:00;;;;;;;54.60;35.90;;;;;;;44.52;7.28;101042.95;108571;1282;21984;-76
2023/10/17 00:10:45;;;;;;;57.80;38.60;;;;;;;44.51;7.53;101045.52;108193;1286;21999;-77
2023/10/17 00:13:38;;;;;;;49.00;35.20;;;;;;;44.44;7.58;101045.29;108172;1281;23055;-77
2023/10/17 00:16:31;;;;;;;45.80;33.00;;;;;;;44.48;7.54;101042.23;108572;1281;23775;-76
2023/10/17 00:19:16;;;;;;;60.60;31.80;;;;;;;44.45;7.53;101042.30;108598;1281;21994;-78
2023/10/17 00:22:18;;;;;;;43.90;33.30;;;;;;;44.48;7.62;101041.99;108563;1281;22414;-77
2023/10/17 00:24:57;;;;;;;46.80;38.80;;;;;;;44.54;7.46;101044.89;108230;1279;21998;-76
2023/10/17 00:27:26;;;;;;;50.70;40.10;;;;;;;44.33;7.76;101046.53;108474;1284;23721;-77
2023/10/17 00:30:02;;;;;;;56.10;42.90;;;;;;;44.28;7.74;101045.29;108208;1284;24209;-77
2023/10/17 00:32:58;;;;;;;47.80;40.50;;;;;;;44.51;7.69;101041.23;108351;1284;22759;-77
2023/10/17 00:35:42;;;;;;;53.50;39.10;;;;;;;44.48;7.40;101042.70;108260;1284;22027;-77
2023/10/17 00:38:20;;;;;;;55.40;40.80;;;;;;;44.59;7.38;101043.25;108400;1283;21998;-77
2023/10/17 00:41:07;;;;;;;60.30;42.50;;;;;;;44.63;7.42;101042.29;108382;1283;22013;-77
2023/10/17 00:43:44;;;;;;;57.20;44.00;;;;;;;44.60;7.46;101040.51;108320;1284;21992;-77
2023/10/17 00:46:22;;;;;;;52.10;42.20;;;;;;;44.34;7.57;101040.59;108397;1283;22769;-77
2023/10/17 00:49:23;;;;;;;53.30;39.60;;;;;;;44.32;7.57;101042.23;108690;1278;22060;-77
2023/10/17 00:52:04;;;;;;;47.20;38.00;;;;;;;44.28;7.48;101043.14;108881;1278;22879;-78
2023/10/17 00:54:45;;;;;;;50.40;39.40;;;;;;;44.41;7.32;101037.73;108600;1278;21995;-76
2023/10/17 00:57:55;;;;;;;49.60;38.10;;;;;;;44.49;7.44;101041.08;108669;1267;21987;-77
2023/10/17 01:00:36;;;;;;;45.80;37.10;;;;;;;44.44;7.43;101043.07;108721;1278;22067;-77
2023/10/17 01:03:24;;;;;;;;;;;;;;;;;;;;;
2023/10/17 01:09:08;;;;;;;44.50;33.90;;;;;;;44.27;7.58;101046.73;109318;1269;21976;-77
2023/10/17 01:12:27;;;;;;;46.80;36.00;;;;;;;44.09;7.58;101048.33;109538;1270;23628;-78
2023/10/17 01:15:27;;;;;;;41.80;35.30;;;;;;;44.29;7.56;101046.23;109016;1275;22724;-76
2023/10/17 01:18:10;;;;;;;40.50;31.20;;;;;;;44.55;7.50;101045.06;108968;1275;21998;-77
2023/10/17 01:20:53;;;;;;;41.00;32.10;;;;;;;44.42;7.46;101044.16;108566;1281;22359;-78
2023/10/17 01:23:43;;;;;;;35.40;29.60;;;;;;;44.22;7.55;101050.33;108649;1280;23005;-76
2023/10/17 01:26:41;;;;;;;36.20;29.30;;;;;;;44.23;7.70;101050.38;108392;1285;23884;-77
2023/10/17 01:29:24;;;;;;;37.80;29.90;;;;;;;44.06;7.78;101054.17;108364;1285;23011;-77
2023/10/17 01:31:56;;;;;;;43.20;34.30;;;;;;;43.93;7.66;101058.19;108315;1285;23104;-78
2023/10/17 01:34:28;;;;;;;45.20;34.70;;;;;;;43.96;7.62;101058.77;108570;1281;22002;-77
2023/10/17 01:37:07;;;;;;;40.20;33.60;;;;;;;43.95;7.63;101059.09;108588;1281;22947;-77
2023/10/17 01:39:49;;;;;;;63.60;46.60;;;;;;;44.10;7.69;101060.52;108828;1274;21996;-79
2023/10/17 01:42:22;;;;;;;42.80;35.50;;;;;;;44.07;7.71;101063.25;109118;1274;21983;-77
2023/10/17 01:45:22;;;;;;;;;;;;;;;;;;;;;
2023/10/17 01:47:58;;;;;;;79.90;50.80;;;;;;;44.07;7.58;101061.40;109455;1270;23727;-77
2023/10/17 01:50:37;;;;;;;60.10;43.10;;;;;;;44.15;7.58;101062.66;109494;1270;22740;-78
2023/10/17 01:53:29;;;;;;;38.60;30.30;;;;;;;44.16;7.61;101061.58;108965;1276;23653;-78
2023/10/17 01:56:26;;;;;;;;;;;;;;;;;;;;;
2023/10/17 01:59:31;;;;;;;31.30;25.90;;;;;;;44.17;7.51;101058.98;109015;1270;21986;-77
2023/10/17 02:02:23;;;;;;;40.90;30.50;;;;;;;44.25;7.53;101057.44;108925;1276;23084;-78
2023/10/17 02:05:12;;;;;;;40.80;31.70;;;;;;;44.30;7.49;101056.35;108934;1276;21944;-77
2023/10/17 02:08:18;;;;;;;87.40;58.80;;;;;;;44.32;7.34;101053.02;108569;1282;21992;-77
2023/10/17 02:11:01;;;;;;;90.00;59.30;;;;;;;44.22;7.37;101057.30;108545;1282;23804;-77
2023/10/17 02:13:38;;;;;;;81.10;62.20;;;;;;;44.00;7.63;101059.34;108548;1282;23621;-77
2023/10/17 02:16:43;;;;;;;69.00;53.60;;;;;;;44.13;7.52;101056.80;108493;1282;21994;-77
2023/10/17 02:19:25;;;;;;;62.30;52.10;;;;;;;44.13;7.40;101058.19;108353;1286;21999;-78
2023/10/17 02:22:09;;;;;;;59.90;53.10;;;;;;;44.07;7.56;101062.94;108382;1286;22024;-76
2023/10/17 02:24:59;;;;;;;58.10;48.60;;;;;;;44.00;7.51;101064.36;107782;1291;22066;-77
2023/10/17 02:27:43;;;;;;;58.20;46.60;;;;;;;43.96;7.52;101060.32;108227;1286;21886;-79
2023/10/17 02:30:29;;;;;;;65.00;51.90;;;;;;;44.09;7.38;101061.58;108247;1286;21997;-77
2023/10/17 02:33:28;;;;;;;;;;;;;;;;;;;;;
2023/10/17 02:36:36;;;;;;;117.20;94.50;;;;;;;44.18;7.25;101060.64;108217;1285;22002;-77
2023/10/17 02:39:24;;;;;;;126.00;103.50;;;;;;;44.14;7.27;101057.98;108474;1284;22099;-78
2023/10/17 02:42:08;;;;;;;70.90;60.30;;;;;;;44.00;7.63;101060.73;108104;1288;23641;-77
2023/10/17 02:44:55;;;;;;;63.30;50.20;;;;;;;43.98;7.38;101059.79;108115;1288;23146;-75
2023/10/17 02:47:43;;;;;;;69.40;59.40;;;;;;;43.91;7.18;101060.83;108150;1288;24160;-77
2023/10/17 02:50:26;;;;;;;55.50;48.00;;;;;;;43.88;7.17;101062.56;108210;1282;23731;-75
2023/10/17 02:53:02;;;;;;;52.20;40.50;;;;;;;43.84;7.29;101065.61;108284;1288;22003;-79
2023/10/17 02:55:42;;;;;;;66.20;49.20;;;;;;;43.82;7.27;101067.30;108182;1282;23725;-78
2023/10/17 02:58:18;;;;;;;84.70;74.60;;;;;;;43.79;7.43;101066.89;108499;1282;21990;-78
2023/10/17 03:00:55;;;;;;;71.80;57.50;;;;;;;43.81;7.59;101071.23;108628;1280;22999;-79
2023/10/17 03:03:34;;;;;;;49.00;35.20;;;;;;;43.82;7.44;101070.15;108484;1284;21992;-78
2023/10/17 03:06:15;;;;;;;102.60;79.60;;;;;;;43.81;7.32;101073.44;108304;1288;23692;-77
2023/10/17 03:08:52;;;;;;;149.70;101.50;;;;;;;43.75;7.35;101076.36;108543;1283;21988;-77
2023/10/17 03:11:37;;;;;;;171.50;115.30;;;;;;;43.62;7.44;101077.39;108384;1283;22039;-77
2023/10/17 03:14:22;;;;;;;152.60;103.10;;;;;;;43.69;7.24;101079.49;108173;1287;22043;-77
2023/10/17 03:16:59;;;;;;;74.40;56.10;;;;;;;43.66;7.35;101085.20;107982;1291;22029;-77
2023/10/17 03:19:42;;;;;;;52.40;40.90;;;;;;;43.50;7.59;101090.91;108083;1288;22021;-77
2023/10/17 03:22:24;;;;;;;45.40;31.70;;;;;;;43.57;7.26;101092.98;108206;1288;24461;-77
2023/10/17 03:25:42;;;;;;;54.00;37.90;;;;;;;43.61;7.63;101091.39;108246;1284;21991;-77
2023/10/17 03:28:09;;;;;;;61.00;40.70;;;;;;;43.69;7.36;101095.50;108133;1285;22005;-76
2023/10/17 03:30:54;;;;;;;56.00;37.30;;;;;;;43.72;7.36;101098.39;107816;1290;22004;-76
2023/10/17 03:33:40;;;;;;;38.00;33.70;;;;;;;43.64;7.26;101097.21;108149;1287;23778;-77
2023/10/17 03:39:27;;;;;;;31.70;25.90;;;;;;;43.18;7.47;101104.80;108459;1280;21995;-77
2023/10/17 03:48:13;;;;;;;43.60;33.10;;;;;;;43.11;7.48;101103.57;108526;1281;22116;-76
2023/10/17 03:51:08;;;;;;;56.70;42.80;;;;;;;43.07;7.41;101105.11;108548;1274;22034;-77
2023/10/17 03:53:46;;;;;;;47.10;30.00;;;;;;;42.71;7.69;101105.41;108727;1281;21997;-77
2023/10/17 03:56:56;;;;;;;38.20;27.70;;;;;;;42.41;7.66;101106.96;108451;1280;21999;-76
2023/10/17 04:00:17;;;;;;;;;;;;;;;;;;;;;
2023/10/17 04:03:19;;;;;;;56.30;32.30;;;;;;;41.88;7.76;101113.23;108585;1276;23640;-77
2023/10/17 04:09:26;;;;;;;60.00;31.90;;;;;;;41.99;7.78;101111.52;109058;1275;21991;-77
2023/10/17 04:12:02;;;;;;;50.90;31.60;;;;;;;42.22;7.72;101108.92;108607;1279;22005;-77
2023/10/17 04:15:02;;;;;;;55.70;32.20;;;;;;;42.33;7.95;101107.60;108624;1279;21987;-76
2023/10/17 04:17:46;;;;;;;70.30;37.40;;;;;;;42.46;7.86;101106.89;108344;1285;22226;-76
2023/10/17 04:20:27;;;;;;;67.10;41.40;;;;;;;42.33;7.86;101106.35;108299;1282;22994;-76
2023/10/17 04:23:26;;;;;;;79.30;46.10;;;;;;;42.53;7.69;101099.73;108498;1282;24329;-76
2023/10/17 04:25:59;;;;;;;75.20;45.80;;;;;;;42.64;7.71;101101.80;108517;1282;23058;-77
2023/10/17 04:28:51;;;;;;;82.30;48.70;;;;;;;42.81;7.84;101099.02;108519;1282;22191;-77
2023/10/17 04:31:43;;;;;;;88.10;45.60;;;;;;;43.19;7.66;101098.00;108673;1280;22048;-78
2023/10/17 04:34:27;;;;;;;75.90;42.40;;;;;;;43.31;7.67;101101.77;108838;1279;21996;-76
2023/10/17 04:37:09;;;;;;;63.30;36.20;;;;;;;43.46;7.56;101099.89;109147;1274;22005;-77
2023/10/17 04:40:42;;;;;;;68.30;38.50;;;;;;;43.51;7.71;101100.27;109561;1268;24388;-77
2023/10/17 04:44:04;;;;;;;71.90;40.50;;;;;;;43.62;7.68;101094.21;109553;1269;23489;-77
2023/10/17 04:46:22;;;;;;;63.20;37.70;;;;;;;43.73;7.57;101094.11;109655;1269;21975;-77
2023/10/17 04:49:17;;;;;;;69.10;37.90;;;;;;;43.62;7.61;101103.13;109669;1269;23033;-76
2023/10/17 04:52:50;;;;;;;77.30;38.40;;;;;;;43.76;7.55;101101.50;109586;1269;23631;-76
2023/10/17 04:55:31;;;;;;;70.50;39.20;;;;;;;43.78;7.61;101106.69;109035;1275;21986;-77
2023/10/17 04:58:30;;;;;;;57.40;32.70;;;;;;;43.50;7.56;101113.33;109138;1275;22109;-77
2023/10/17 05:01:35;;;;;;;70.50;38.90;;;;;;;43.18;7.74;101117.65;109048;1275;21980;-76
2023/10/17 05:04:31;;;;;;;66.00;36.10;;;;;;;43.27;7.86;101117.38;109057;1275;21982;-77
2023/10/17 05:07:16;;;;;;;57.40;36.00;;;;;;;43.12;7.83;101120.20;109116;1275;22518;-77
2023/10/17 06:19:08;;;;;;;38.70;31.00;;;;;;;43.68;7.91;101166.80;109512;1270;23633;-77
2023/10/17 06:28:38;;;;;;;55.90;34.40;;;;;;;44.20;7.69;101158.54;108932;1276;23801;-76
2023/10/17 06:31:43;;;;;;;62.40;36.80;;;;;;;44.29;7.66;101156.95;109023;1271;23815;-76
2023/10/17 06:34:38;;;;;;;43.90;33.00;;;;;;;44.54;7.67;101162.80;109002;1276;21994;-76
2023/10/17 06:37:51;;;;;;;45.10;36.20;;;;;;;44.49;7.70;101163.70;108550;1282;21991;-77
2023/10/17 06:41:38;;;;;;;44.40;32.70;;;;;;;44.71;7.49;101166.31;108160;1290;22873;-77
2023/10/17 06:44:26;;;;;;;43.30;36.50;;;;;;;44.84;7.47;101166.12;108428;1284;22133;-76
2023/10/17 06:47:27;;;;;;;50.50;37.90;;;;;;;44.91;7.67;101169.02;108497;1283;21996;-76
2023/10/17 06:53:27;;;;;;;;;;;;;;;;;;;;;
2023/10/17 06:56:10;;;;;;;45.00;35.40;;;;;;;44.50;7.51;101176.30;108224;1280;21996;-76
2023/10/17 06:59:23;;;;;;;44.10;35.00;;;;;;;44.01;7.90;101180.30;107955;1287;544046;-76
2023/10/17 07:02:16;;;;;;;44.00;38.00;;;;;;;44.68;7.78;101176.20;109882;1267;23624;-77
2023/10/17 07:05:17;;;;;;;49.60;37.40;;;;;;;45.03;7.39;101174.91;110783;1260;23689;-76
2023/10/17 07:08:36;;;;;;;41.30;31.70;;;;;;;45.24;7.39;101173.79;110772;1260;22119;-75
2023/10/17 07:11:29;;;;;;;40.30;30.50;;;;;;;45.08;7.44;101173.95;110229;1265;21970;-77
2023/10/17 07:14:29;;;;;;;45.40;30.90;;;;;;;45.59;7.56;101167.05;104403;1268;23082;-76
2023/10/17 07:17:27;;;;;;;55.70;36.70;;;;;;;45.65;7.24;101168.39;109183;1274;22053;-76
2023/10/17 07:23:20;;;;;;;49.30;35.80;;;;;;;45.80;7.31;101166.44;109749;1270;23052;-75
2023/10/17 07:25:56;;;;;;;52.10;37.60;;;;;;;45.91;7.36;101168.66;109683;1271;21979;-76
2023/10/17 07:28:42;;;;;;;53.90;37.70;;;;;;;45.74;7.24;101168.73;109722;1266;22461;-76
2023/10/17 07:31:30;;;;;;;50.70;36.00;;;;;;;45.78;7.25;101165.11;110157;1264;21969;-76
2023/10/17 07:36:45;;;;;;;52.30;37.50;;;;;;;45.91;7.33;101163.52;111072;1257;21967;-79
2023/10/17 07:39:43;;;;;;;56.10;40.30;;;;;;;46.19;7.35;101163.20;110780;1257;23603;-79
2023/10/17 07:42:40;;;;;;;64.50;44.10;;;;;;;46.47;7.12;101160.46;110882;1257;21956;-80
2023/10/17 07:49:28;;;;;;;56.90;39.90;;;;;;;46.95;7.29;101160.02;110983;1257;22035;-76
2023/10/17 07:52:37;;;;;;;53.50;35.50;;;;;;;46.79;7.29;101163.55;110730;1256;21974;-75
2023/10/17 07:59:08;;;;;;;46.10;29.40;;;;;;;47.10;7.26;101170.33;110642;1260;22008;-77
2023/10/17 08:01:46;;;;;;;48.60;28.90;;;;;;;47.27;7.25;101171.86;110316;1265;22015;-75
2023/10/17 08:04:43;;;;;;;34.70;26.10;;;;;;;47.71;7.27;101168.77;110126;1257;23603;-76
2023/10/17 08:07:30;;;;;;;43.50;29.60;;;;;;;47.69;7.05;101170.68;109348;1272;22586;-76
2023/10/17 08:10:11;;;;;;;34.20;25.60;;;;;;;47.44;7.11;101179.40;109477;1270;23738;-76
2023/10/17 08:12:42;;;;;;;30.40;24.80;;;;;;;47.12;7.23;101177.06;109189;1273;21979;-74
2023/10/17 08:15:22;;;;;;;36.40;27.10;;;;;;;47.25;7.11;101178.77;109407;1265;22040;-77
2023/10/17 08:18:04;;;;;;;35.30;27.90;;;;;;;47.40;7.16;101178.21;109147;1272;23715;-77
2023/10/17 08:23:27;;;;;;;51.70;33.70;;;;;;;47.58;7.30;101182.23;109166;1267;22003;-76
2023/10/17 08:26:03;;;;;;;47.10;29.70;;;;;;;48.25;7.33;101174.68;109807;1266;21986;-80
2023/10/17 08:42:11;;;;;;;23.00;20.10;;;;;;;51.77;6.17;101160.18;110970;1258;21985;-78
2023/10/17 08:44:49;;;;;;;19.90;17.80;;;;;;;51.86;5.93;101162.38;110689;1253;23025;-79
2023/10/17 08:47:30;;;;;;;25.10;18.90;;;;;;;52.02;5.88;101163.16;110844;1258;23706;-78
2023/10/17 08:50:06;;;;;;;19.10;16.50;;;;;;;51.89;5.70;101160.55;110868;1248;23024;-77
2023/10/17 08:52:40;;;;;;;21.60;17.00;;;;;;;51.89;5.87;101159.14;110859;1247;23090;-77
2023/10/17 08:55:15;;;;;;;19.80;17.20;;;;;;;52.16;5.91;101160.42;111108;1258;21977;-78
2023/10/17 08:57:48;;;;;;;22.10;17.50;;;;;;;52.54;5.83;101157.97;111012;1258;21968;-79
2023/10/17 09:00:38;;;;;;;24.30;18.30;;;;;;;52.58;5.83;101156.02;111175;1257;23714;-78
2023/10/17 09:03:09;;;;;;;32.10;25.30;;;;;;;53.08;5.70;101157.70;110754;1258;21952;-78
2023/10/17 09:11:34;;;;;;;28.40;20.80;;;;;;;53.68;5.66;101156.04;110459;1258;21964;-78
2023/10/17 09:14:27;;;;;;;27.20;19.60;;;;;;;54.10;5.65;101153.75;110914;1258;23596;-78
2023/10/17 09:17:16;;;;;;;29.30;19.60;;;;;;;54.90;5.36;101152.14;110989;1258;23634;-77
2023/10/17 09:19:53;;;;;;;21.10;16.20;;;;;;;55.35;5.12;101150.71;110923;1257;22220;-77
2023/10/17 09:22:23;;;;;;;21.00;16.50;;;;;;;55.29;5.04;101154.62;110936;1258;22002;-78
2023/10/17 09:24:56;;;;;;;19.90;17.70;;;;;;;55.51;4.92;101153.89;110828;1260;22035;-77
2023/10/17 09:27:52;;;;;;;24.80;19.70;;;;;;;55.83;4.71;101150.39;110818;1259;23019;-77
2023/10/17 09:30:26;;;;;;;18.60;16.20;;;;;;;56.08;4.83;101147.17;110933;1260;23621;-81
2023/10/17 09:32:59;;;;;;;22.90;16.30;;;;;;;56.01;4.66;101146.94;110522;1260;23583;-81
2023/10/17 09:35:30;;;;;;;17.70;14.00;;;;;;;56.01;4.63;101142.37;111120;1259;23041;-77
2023/10/17 09:38:07;;;;;;;16.70;15.00;;;;;;;56.35;4.68;101143.59;110875;1259;22424;-78
2023/10/17 09:41:05;;;;;;;18.50;14.60;;;;;;;56.90;4.44;101144.63;110526;1259;21973;-77
2023/10/17 09:43:52;;;;;;;;;;;;;;;57.10;4.36;101148.40;111055;1253;21945;-77
2023/10/17 09:46:35;;;;;;;16.50;13.30;;;;;;;57.34;4.14;101143.11;111211;1253;22728;-77
2023/10/17 09:49:17;;;;;;;19.80;13.30;;;;;;;57.21;4.36;101143.44;111215;1253;21968;-77
2023/10/17 09:51:56;;;;;;;20.30;14.10;;;;;;;57.56;4.37;101143.55;111339;1254;21957;-77
2023/10/17 09:54:41;;;;;;;15.40;12.60;;;;;;;58.00;4.19;101137.30;111484;1254;22342;-77
2023/10/17 09:57:24;;;;;;;13.80;11.50;;;;;;;58.28;4.03;101134.97;111260;1254;21963;-78
2023/10/17 10:00:37;;;;;;;14.80;8.90;;;;;;;58.50;3.87;101128.67;111472;1243;23020;-77
2023/10/17 10:03:19;;;;;;;12.20;9.60;;;;;;;58.73;3.62;101126.15;111354;1254;21972;-77
2023/10/17 10:05:54;;;;;;;11.30;9.90;;;;;;;58.31;3.60;101127.64;110792;1258;21963;-78
2023/10/17 10:08:32;;;;;;;13.80;10.10;;;;;;;58.06;3.88;101125.75;110220;1259;23027;-78
2023/10/17 10:11:08;;;;;;;15.50;9.10;;;;;;;58.31;4.01;101124.30;109887;1262;22106;-78
2023/10/17 10:14:03;;;;;;;18.00;13.30;;;;;;;58.59;3.76;101118.67;110330;1261;22008;-78
2023/10/17 10:16:50;;;;;;;14.70;10.50;;;;;;;58.71;3.55;101118.94;110199;1263;23756;-77
2023/10/17 10:19:46;;;;;;;11.10;9.40;;;;;;;58.74;3.73;101117.56;109736;1270;21980;-78
2023/10/17 10:22:18;;;;;;;15.00;11.10;;;;;;;59.04;3.82;101112.83;109866;1268;22393;-78
2023/10/17 10:25:05;;;;;;;18.40;11.90;;;;;;;58.85;3.79;101112.91;109610;1270;22920;-78
2023/10/17 10:27:36;;;;;;;20.00;11.30;;;;;;;58.63;3.68;101110.07;110051;1264;24163;-77
2023/10/17 10:30:43;;;;;;;14.50;10.30;;;;;;;58.56;3.63;101108.16;110295;1260;22983;-78
2023/10/17 10:33:16;;;;;;;17.80;10.00;;;;;;;58.85;3.50;101101.48;110713;1260;21977;-78
2023/10/17 10:35:46;;;;;;;19.50;11.30;;;;;;;58.69;3.74;101102.67;110745;1260;22348;-76
2023/10/17 10:38:22;;;;;;;12.70;7.50;;;;;;;58.71;3.76;101097.81;110797;1257;23013;-78
2023/10/17 10:40:53;;;;;;;11.60;8.50;;;;;;;58.79;3.48;101093.17;110954;1257;22197;-77
2023/10/17 10:43:26;;;;;;;16.40;8.70;;;;;;;58.78;3.46;101089.21;110819;1257;21993;-78
2023/10/17 10:46:00;;;;;;;11.40;7.30;;;;;;;58.50;3.65;101089.40;110969;1257;21954;-80
2023/10/17 10:48:48;;;;;;;20.50;15.50;;;;;;;58.38;3.55;101082.55;111251;1257;21977;-80
2023/10/17 10:51:29;;;;;;;13.80;9.80;;;;;;;58.35;3.46;101085.67;110940;1262;22060;-80
2023/10/17 10:54:08;;;;;;;7.40;6.10;;;;;;;58.30;3.44;101088.14;110837;1262;23020;-80
2023/10/17 10:56:49;;;;;;;12.10;6.80;;;;;;;58.13;3.44;101087.16;110921;1259;24255;-79
2023/10/17 10:59:29;;;;;;;12.90;7.60;;;;;;;57.85;3.38;101082.07;110816;1264;21965;-80
2023/10/17 11:02:01;;;;;;;9.90;7.30;;;;;;;57.61;3.66;101080.80;110783;1264;22412;-79
2023/10/17 11:04:32;;;;;;;7.70;5.50;;;;;;;57.49;3.65;101077.52;110564;1264;21990;-80
2023/10/17 11:07:25;;;;;;;10.50;6.60;;;;;;;57.34;3.61;101076.33;110702;1264;21994;-81
2023/10/17 11:10:10;;;;;;;10.70;6.40;;;;;;;57.27;3.62;101072.52;110811;1259;23842;-80
2023/10/17 11:12:53;;;;;;;10.60;5.30;;;;;;;56.88;3.69;101074.76;110722;1259;21979;-81
2023/10/17 11:15:30;;;;;;;9.90;4.90;;;;;;;56.39;3.74;101071.09;110376;1259;21970;-80
2023/10/17 11:18:17;;;;;;;10.50;4.80;;;;;;;56.05;3.96;101068.66;110286;1264;22099;-80
2023/10/17 11:20:55;;;;;;;6.50;4.30;;;;;;;56.12;3.86;101067.29;110308;1265;22015;-78
2023/10/17 11:23:29;;;;;;;9.10;4.60;;;;;;;55.99;3.90;101069.27;109798;1269;21991;-78
2023/10/17 11:26:07;;;;;;;14.60;7.10;;;;;;;55.77;3.84;101066.53;109448;1269;23024;-75
2023/10/17 11:29:03;;;;;;;14.50;9.50;;;;;;;55.46;3.87;101067.52;109506;1266;21980;-76
2023/10/17 11:31:42;;;;;;;13.40;5.60;;;;;;;55.03;4.00;101072.45;108835;1276;22459;-76
2023/10/17 11:34:34;;;;;;;10.80;6.40;;;;;;;54.73;4.06;101070.52;108547;1282;22046;-76
2023/10/17 11:37:11;;;;;;;8.00;4.10;;;;;;;54.54;4.14;101069.14;108445;1283;23823;-76
2023/10/17 11:39:46;;;;;;;7.00;3.80;;;;;;;54.17;4.43;101068.45;108785;1275;21991;-77
2023/10/17 11:42:33;;;;;;;5.20;3.00;;;;;;;53.72;4.33;101068.94;108662;1271;21989;-78
2023/10/17 11:45:19;;;;;;;7.80;3.60;;;;;;;53.73;4.49;101061.48;108856;1271;23552;-79
2023/10/17 11:47:57;;;;;;;5.60;3.40;;;;;;;54.05;4.35;101057.63;108906;1274;23106;-85
2023/10/17 11:50:36;;;;;;;6.80;4.50;;;;;;;53.93;4.34;101058.03;109132;1272;22147;-76
2023/10/17 11:53:17;;;;;;;4.80;3.50;;;;;;;53.87;4.27;101055.21;109192;1270;23776;-77
2023/10/17 11:55:56;;;;;;;7.10;3.90;;;;;;;53.90;4.28;101047.11;109880;1265;21986;-76
2023/10/17 11:58:29;;;;;;;9.50;4.70;;;;;;;53.64;4.27;101051.27;110032;1263;23039;-76
2023/10/17 12:01:02;;;;;;;5.80;3.50;;;;;;;53.59;4.44;101045.41;110073;1263;22758;-76
2023/10/17 12:03:38;;;;;;;;;;;;;;;53.39;4.40;101047.09;110258;1263;21953;-76
2023/10/17 12:06:17;;;;;;;5.80;3.60;;;;;;;53.77;4.13;101043.79;110450;1258;22007;-78
2023/10/17 12:08:48;;;;;;;4.70;3.60;;;;;;;53.52;4.33;101044.69;109649;1266;22457;-77
2023/10/17 12:11:25;;;;;;;7.10;3.00;;;;;;;53.37;4.40;101040.46;110214;1260;23040;-76
2023/10/17 12:13:57;;;;;;;3.80;3.00;;;;;;;53.24;4.35;101034.97;110638;1259;24961;-76
2023/10/17 12:16:28;;;;;;;4.80;3.40;;;;;;;53.19;4.29;101033.02;110499;1260;21967;-76
2023/10/17 12:19:00;;;;;;;7.80;4.20;;;;;;;53.24;4.42;101033.52;110457;1260;22334;-77
2023/10/17 12:21:34;;;;;;;6.00;3.70;;;;;;;53.21;4.57;101032.44;110639;1260;23591;-76
2023/10/17 12:24:11;;;;;;;7.60;3.90;;;;;;;53.10;4.52;101030.48;110572;1260;24348;-76
2023/10/17 12:26:53;;;;;;;8.10;4.70;;;;;;;52.94;4.67;101025.58;110705;1254;22432;-76
2023/10/17 12:29:29;;;;;;;8.70;4.50;;;;;;;53.13;4.49;101021.39;110957;1254;21970;-79
2023/10/17 12:32:34;;;;;;;9.10;4.80;;;;;;;53.27;4.51;101016.93;110926;1254;22440;-78
2023/10/17 12:35:16;;;;;;;8.60;5.60;;;;;;;53.58;4.52;101008.52;110611;1260;23016;-78
2023/10/17 12:38:49;;;;;;;12.80;8.80;;;;;;;53.65;4.33;100996.04;110609;1257;22727;-76
2023/10/17 12:42:19;;;;;;;7.60;4.60;;;;;;;53.63;4.24;100994.00;110507;1255;24384;-77
2023/10/17 12:44:54;;;;;;;7.90;3.40;;;;;;;53.56;4.31;100989.26;110492;1260;22352;-76
2023/10/17 12:47:29;;;;;;;10.00;3.00;;;;;;;53.33;4.39;100989.77;109902;1260;23029;-77
2023/10/17 12:50:05;;;;;;;4.50;3.20;;;;;;;53.30;4.42;100981.98;109905;1266;23656;-80
2023/10/17 12:52:42;;;;;;;5.20;2.60;;;;;;;53.41;4.35;100977.77;109518;1267;21996;-79
2023/10/17 12:55:21;;;;;;;10.40;2.80;;;;;;;53.28;4.16;100977.98;110184;1267;22398;-79
2023/10/17 12:57:55;;;;;;;5.00;2.10;;;;;;;53.14;4.21;100977.48;109943;1266;22004;-78
2023/10/17 13:00:46;;;;;;;8.00;2.50;;;;;;;53.09;4.31;100973.02;109938;1267;22188;-78
2023/10/17 13:03:53;;;;;;;8.00;1.90;;;;;;;53.47;4.17;100967.77;110699;1264;24302;-78
2023/10/17 13:06:43;;;;;;;6.50;2.20;;;;;;;53.46;4.22;100966.02;110996;1260;21980;-79
2023/10/17 13:09:49;;;;;;;10.20;2.70;;;;;;;53.32;4.09;100965.76;110538;1261;23819;-77
2023/10/17 13:12:30;;;;;;;5.70;2.20;;;;;;;53.35;4.06;100961.83;111113;1256;21989;-77
2023/10/17 13:15:08;;;;;;;8.80;3.40;;;;;;;53.04;4.22;100960.30;111124;1256;22400;-76
2023/10/17 13:18:16;;;;;;;10.80;4.80;;;;;;;52.77;4.24;100960.11;111205;1256;21983;-75
2023/10/17 13:20:50;;;;;;;6.50;3.60;;;;;;;53.09;4.29;100952.06;111328;1250;21971;-76
2023/10/17 13:23:52;;;;;;;6.40;3.70;;;;;;;53.11;4.31;100952.50;111224;1256;23038;-79
2023/10/17 13:26:25;;;;;;;4.90;3.30;;;;;;;52.92;4.50;100957.69;111157;1256;23689;-76
2023/10/17 13:28:59;;;;;;;6.00;3.40;;;;;;;52.86;4.33;100954.80;110825;1257;23830;-76
2023/10/17 13:31:37;;;;;;;6.10;3.00;;;;;;;52.96;4.29;100950.48;110664;1260;21964;-77
2023/10/17 13:34:24;;;;;;;6.90;3.50;;;;;;;53.17;4.33;100943.52;110632;1261;22046;-76
2023/10/17 13:37:04;;;;;;;8.70;3.60;;;;;;;53.43;4.17;100944.29;110627;1261;22786;-78
2023/10/17 13:40:09;;;;;;;6.00;4.00;;;;;;;53.35;4.32;100946.52;110661;1260;22283;-77
2023/10/17 13:43:07;;;;;;;8.50;4.50;;;;;;;53.37;4.34;100946.42;110784;1260;21979;-77
2023/10/17 13:46:12;;;;;;;11.90;5.00;;;;;;;53.27;4.43;100946.50;110655;1260;23005;-77
2023/10/17 13:48:48;;;;;;;7.70;4.40;;;;;;;53.39;4.40;100941.04;110275;1260;21969;-77
2023/10/17 13:51:54;;;;;;;9.30;5.40;;;;;;;53.47;4.10;100945.69;111144;1260;21979;-78
2023/10/17 13:54:37;;;;;;;5.40;4.10;;;;;;;53.26;4.15;100957.61;110682;1247;21961;-78
2023/10/17 13:57:31;;;;;;;7.30;4.00;;;;;;;53.03;4.21;100963.91;110351;1264;21977;-77
2023/10/17 14:00:18;;;;;;;5.90;4.20;;;;;;;53.02;4.27;100965.49;110416;1264;21992;-78
2023/10/17 14:03:02;;;;;;;7.90;4.70;;;;;;;53.00;4.24;100965.63;110716;1264;22056;-77
2023/10/17 14:06:00;;;;;;;5.10;3.00;;;;;;;52.92;4.15;100963.73;110702;1264;21963;-78
2023/10/17 14:08:42;;;;;;;7.10;3.10;;;;;;;52.98;4.07;100960.52;110710;1264;22060;-77
2023/10/17 14:11:23;;;;;;;9.50;4.00;;;;;;;52.93;4.36;100963.16;110385;1259;24064;-76
2023/10/17 14:14:00;;;;;;;14.30;6.70;;;;;;;52.88;4.43;100967.14;110582;1262;23022;-76
2023/10/17 14:16:40;;;;;;;7.90;4.10;;;;;;;52.76;4.34;100966.30;110542;1262;22582;-78
2023/10/17 14:19:36;;;;;;;8.60;5.90;;;;;;;52.86;4.20;100965.05;110550;1260;23026;-76
2023/10/17 14:23:08;;;;;;;6.90;4.20;;;;;;;52.89;4.18;100960.52;110830;1256;21960;-77
2023/10/17 14:28:21;;;;;;;6.10;3.80;;;;;;;52.66;4.33;100951.48;110669;1262;24401;-76
2023/10/17 14:31:11;;;;;;;6.50;3.80;;;;;;;52.62;4.28;100960.25;110820;1262;22039;-76
2023/10/17 14:33:46;;;;;;;7.90;3.50;;;;;;;52.62;4.37;100960.81;110788;1260;21964;-78
2023/10/17 14:36:17;;;;;;;4.00;3.20;;;;;;;52.67;4.37;100951.33;110930;1257;21981;-76
2023/10/17 14:39:01;;;;;;;6.60;4.20;;;;;;;52.60;4.15;100942.74;110760;1260;23624;-76
2023/10/17 14:41:40;;;;;;;6.10;3.10;;;;;;;52.50;4.17;100937.09;110993;1260;23591;-77
2023/10/17 14:44:15;;;;;;;6.10;3.80;;;;;;;52.34;4.32;100933.23;110980;1258;22966;-79
2023/10/17 14:46:54;;;;;;;7.40;5.00;;;;;;;52.37;4.48;100931.80;110981;1260;23857;-78
2023/10/17 14:50:26;;;;;;;23.80;18.90;;;;;;;52.77;4.31;100925.81;111209;1250;23043;-76
2023/10/17 14:53:05;;;;;;;16.70;8.80;;;;;;;52.62;4.52;100925.11;111197;1254;22076;-77
2023/10/17 14:55:41;;;;;;;12.00;9.00;;;;;;;52.54;4.58;100920.95;111284;1254;21967;-77
2023/10/17 14:58:14;;;;;;;54.00;47.90;;;;;;;52.52;4.39;100922.53;111248;1254;23622;-77
2023/10/17 15:00:48;;;;;;;80.50;72.40;;;;;;;52.29;4.38;100924.73;111477;1254;22048;-76
2023/10/17 15:03:27;;;;;;;34.70;31.40;;;;;;;52.43;4.26;100917.98;110692;1259;23707;-77